sensor_id;sensor_type;location;lat;lon;timestamp;pressure;altitude;pressure_sealevel;temperature;humidity
47154;BME280;32907;41.412;2.164;2023-07-09T00:02:16;100674.19;;;28.37;50.50
47154;BME280;32907;41.412;2.164;2023-07-09T00:04:45;100702.25;;;28.51;50.56
47154;BME280;32907;41.412;2.164;2023-07-09T00:07:32;100691.22;;;28.51;50.42
47154;BME280;32907;41.412;2.164;2023-07-09T00:10:00;100690.41;;;28.51;50.80
47154;BME280;32907;41.412;2.164;2023-07-09T00:12:29;100656.63;;;28.29;50.55
47154;BME280;32907;41.412;2.164;2023-07-09T00:14:56;100682.50;;;28.49;50.41
47154;BME280;32907;41.412;2.164;2023-07-09T00:17:33;100673.97;;;28.42;50.06
47154;BME280;32907;41.412;2.164;2023-07-09T00:20:02;100685.59;;;28.48;50.10
47154;BME280;32907;41.412;2.164;2023-07-09T00:22:35;100638.91;;;28.18;50.49
47154;BME280;32907;41.412;2.164;2023-07-09T00:25:03;100680.75;;;28.45;50.51
47154;BME280;32907;41.412;2.164;2023-07-09T00:27:31;100669.63;;;28.41;50.65
47154;BME280;32907;41.412;2.164;2023-07-09T00:29:59;100657.06;;;28.31;50.46
47154;BME280;32907;41.412;2.164;2023-07-09T00:32:28;100688.81;;;28.50;50.19
47154;BME280;32907;41.412;2.164;2023-07-09T00:34:59;100683.28;;;28.50;49.92
47154;BME280;32907;41.412;2.164;2023-07-09T00:37:32;100648.00;;;28.31;50.12
47154;BME280;32907;41.412;2.164;2023-07-09T00:40:00;100655.16;;;28.32;50.32
47154;BME280;32907;41.412;2.164;2023-07-09T00:42:28;100616.97;;;28.09;50.20
47154;BME280;32907;41.412;2.164;2023-07-09T00:44:57;100664.09;;;28.41;49.79
47154;BME280;32907;41.412;2.164;2023-07-09T00:50:26;100635.56;;;28.25;49.51
47154;BME280;32907;41.412;2.164;2023-07-09T00:53:08;100668.00;;;28.40;49.26
47154;BME280;32907;41.412;2.164;2023-07-09T00:55:40;100651.09;;;28.29;49.54
47154;BME280;32907;41.412;2.164;2023-07-09T00:58:11;100617.88;;;28.13;49.46
47154;BME280;32907;41.412;2.164;2023-07-09T01:00:49;100666.59;;;28.46;49.54
47154;BME280;32907;41.412;2.164;2023-07-09T01:03:29;100671.31;;;28.46;49.56
47154;BME280;32907;41.412;2.164;2023-07-09T01:05:58;100656.19;;;28.39;49.16
47154;BME280;32907;41.412;2.164;2023-07-09T01:08:31;100662.59;;;28.43;49.18
47154;BME280;32907;41.412;2.164;2023-07-09T01:11:00;100593.75;;;27.98;49.19
47154;BME280;32907;41.412;2.164;2023-07-09T01:13:28;100629.59;;;28.23;48.91
47154;BME280;32907;41.412;2.164;2023-07-09T01:15:59;100641.09;;;28.25;49.10
47154;BME280;32907;41.412;2.164;2023-07-09T01:18:28;100660.31;;;28.33;48.62
47154;BME280;32907;41.412;2.164;2023-07-09T01:21:08;100641.53;;;28.27;48.72
47154;BME280;32907;41.412;2.164;2023-07-09T01:23:45;100653.50;;;28.31;48.81
47154;BME280;32907;41.412;2.164;2023-07-09T01:26:18;100638.19;;;28.21;48.64
47154;BME280;32907;41.412;2.164;2023-07-09T01:28:47;100670.53;;;28.45;48.76
47154;BME280;32907;41.412;2.164;2023-07-09T01:31:17;100644.75;;;28.29;48.50
47154;BME280;32907;41.412;2.164;2023-07-09T01:33:49;100669.72;;;28.45;48.73
47154;BME280;32907;41.412;2.164;2023-07-09T01:36:21;100649.63;;;28.32;48.14
47154;BME280;32907;41.412;2.164;2023-07-09T01:38:53;100674.44;;;28.44;48.68
47154;BME280;32907;41.412;2.164;2023-07-09T01:41:21;100655.94;;;28.32;48.32
47154;BME280;32907;41.412;2.164;2023-07-09T01:43:59;100664.66;;;28.34;48.07
47154;BME280;32907;41.412;2.164;2023-07-09T01:46:28;100634.88;;;28.15;47.81
47154;BME280;32907;41.412;2.164;2023-07-09T01:48:57;100650.84;;;28.22;48.13
47154;BME280;32907;41.412;2.164;2023-07-09T01:51:26;100658.78;;;28.24;48.25
47154;BME280;32907;41.412;2.164;2023-07-09T01:53:57;100686.16;;;28.41;48.34
47154;BME280;32907;41.412;2.164;2023-07-09T01:56:30;100676.50;;;28.35;47.76
47154;BME280;32907;41.412;2.164;2023-07-09T01:59:22;100661.06;;;28.22;48.10
47154;BME280;32907;41.412;2.164;2023-07-09T02:01:50;100686.16;;;28.41;48.30
47154;BME280;32907;41.412;2.164;2023-07-09T02:04:21;100691.69;;;28.41;48.07
47154;BME280;32907;41.412;2.164;2023-07-09T02:06:50;100683.06;;;28.42;48.36
47154;BME280;32907;41.412;2.164;2023-07-09T02:09:18;100634.31;;;28.10;48.70
47154;BME280;32907;41.412;2.164;2023-07-09T02:11:48;100683.88;;;28.43;48.63
47154;BME280;32907;41.412;2.164;2023-07-09T02:14:16;100682.13;;;28.38;49.14
47154;BME280;32907;41.412;2.164;2023-07-09T02:16:44;100677.19;;;28.44;49.32
47154;BME280;32907;41.412;2.164;2023-07-09T02:19:12;100653.03;;;28.29;49.37
47154;BME280;32907;41.412;2.164;2023-07-09T02:21:40;100639.00;;;28.22;49.56
47154;BME280;32907;41.412;2.164;2023-07-09T02:24:08;100666.84;;;28.41;49.96
47154;BME280;32907;41.412;2.164;2023-07-09T02:26:36;100645.44;;;28.26;49.87
47154;BME280;32907;41.412;2.164;2023-07-09T02:29:03;100638.91;;;28.18;50.33
47154;BME280;32907;41.412;2.164;2023-07-09T02:31:32;100660.31;;;28.33;50.74
47154;BME280;32907;41.412;2.164;2023-07-09T02:34:01;100651.78;;;28.26;50.31
47154;BME280;32907;41.412;2.164;2023-07-09T02:36:30;100647.50;;;28.29;51.17
47154;BME280;32907;41.412;2.164;2023-07-09T02:38:59;100619.72;;;28.09;51.24
47154;BME280;32907;41.412;2.164;2023-07-09T02:41:30;100665.94;;;28.37;51.44
47154;BME280;32907;41.412;2.164;2023-07-09T02:43:58;100671.09;;;28.38;51.79
47154;BME280;32907;41.412;2.164;2023-07-09T02:46:26;100671.00;;;28.35;51.69
47154;BME280;32907;41.412;2.164;2023-07-09T02:48:55;100681.31;;;28.38;51.83
47154;BME280;32907;41.412;2.164;2023-07-09T02:51:24;100661.66;;;28.27;52.66
47154;BME280;32907;41.412;2.164;2023-07-09T02:53:55;100651.44;;;28.15;52.37
47154;BME280;32907;41.412;2.164;2023-07-09T02:56:24;100682.81;;;28.35;52.09
47154;BME280;32907;41.412;2.164;2023-07-09T02:58:53;100643.13;;;28.03;51.66
47154;BME280;32907;41.412;2.164;2023-07-09T03:01:21;100698.13;;;28.33;50.99
47154;BME280;32907;41.412;2.164;2023-07-09T03:03:55;100663.47;;;28.11;50.30
47154;BME280;32907;41.412;2.164;2023-07-09T03:06:24;100693.81;;;28.23;50.31
47154;BME280;32907;41.412;2.164;2023-07-09T03:08:52;100663.69;;;28.06;49.74
47154;BME280;32907;41.412;2.164;2023-07-09T03:11:23;100692.19;;;28.22;49.45
47154;BME280;32907;41.412;2.164;2023-07-09T03:13:52;100702.22;;;28.27;49.77
47154;BME280;32907;41.412;2.164;2023-07-09T03:16:20;100676.31;;;28.07;49.52
47154;BME280;32907;41.412;2.164;2023-07-09T03:18:48;100712.78;;;28.25;48.99
47154;BME280;32907;41.412;2.164;2023-07-09T03:21:16;100668.84;;;27.95;49.20
47154;BME280;32907;41.412;2.164;2023-07-09T03:23:44;100714.41;;;28.26;49.42
47154;BME280;32907;41.412;2.164;2023-07-09T03:26:12;100719.91;;;28.26;49.45
47154;BME280;32907;41.412;2.164;2023-07-09T03:28:40;100714.59;;;28.21;49.11
47154;BME280;32907;41.412;2.164;2023-07-09T03:31:09;100695.63;;;28.07;49.08
47154;BME280;32907;41.412;2.164;2023-07-09T03:33:36;100711.25;;;28.15;48.85
47154;BME280;32907;41.412;2.164;2023-07-09T03:36:05;100711.59;;;28.13;49.24
47154;BME280;32907;41.412;2.164;2023-07-09T03:38:33;100730.59;;;28.27;49.07
47154;BME280;32907;41.412;2.164;2023-07-09T03:41:02;100697.81;;;28.01;48.76
47154;BME280;32907;41.412;2.164;2023-07-09T03:43:30;100717.59;;;28.15;49.02
47154;BME280;32907;41.412;2.164;2023-07-09T03:45:58;100729.78;;;28.27;49.11
47154;BME280;32907;41.412;2.164;2023-07-09T03:48:27;100725.63;;;28.21;48.84
47154;BME280;32907;41.412;2.164;2023-07-09T03:50:55;100727.47;;;28.29;48.97
47154;BME280;32907;41.412;2.164;2023-07-09T03:53:27;100712.75;;;28.12;48.95
47154;BME280;32907;41.412;2.164;2023-07-09T03:55:56;100736.81;;;28.24;49.14
47154;BME280;32907;41.412;2.164;2023-07-09T03:58:24;100745.19;;;28.28;49.15
47154;BME280;32907;41.412;2.164;2023-07-09T04:00:53;100746.47;;;28.30;49.81
47154;BME280;32907;41.412;2.164;2023-07-09T04:03:24;100733.69;;;28.26;49.77
47154;BME280;32907;41.412;2.164;2023-07-09T04:05:53;100737.41;;;28.30;49.79
47154;BME280;32907;41.412;2.164;2023-07-09T04:08:21;100713.91;;;28.11;49.76
47154;BME280;32907;41.412;2.164;2023-07-09T04:10:49;100707.13;;;28.09;49.38
47154;BME280;32907;41.412;2.164;2023-07-09T04:13:17;100721.72;;;28.09;49.25
47154;BME280;32907;41.412;2.164;2023-07-09T04:15:45;100756.91;;;28.25;49.36
47154;BME280;32907;41.412;2.164;2023-07-09T04:18:13;100717.22;;;28.05;49.24
47154;BME280;32907;41.412;2.164;2023-07-09T04:20:42;100710.78;;;28.01;49.13
47154;BME280;32907;41.412;2.164;2023-07-09T04:23:10;100689.41;;;27.98;48.61
47154;BME280;32907;41.412;2.164;2023-07-09T04:25:38;100728.84;;;28.23;48.70
47154;BME280;32907;41.412;2.164;2023-07-09T04:28:08;100693.91;;;28.02;49.06
47154;BME280;32907;41.412;2.164;2023-07-09T04:30:36;100685.97;;;28.01;49.18
47154;BME280;32907;41.412;2.164;2023-07-09T04:33:04;100666.31;;;27.90;49.62
47154;BME280;32907;41.412;2.164;2023-07-09T04:35:33;100713.09;;;28.23;50.63
47154;BME280;32907;41.412;2.164;2023-07-09T04:38:01;100717.25;;;28.17;50.58
47154;BME280;32907;41.412;2.164;2023-07-09T04:40:28;100745.38;;;28.23;51.37
47154;BME280;32907;41.412;2.164;2023-07-09T04:42:56;100736.81;;;28.24;50.93
47154;BME280;32907;41.412;2.164;2023-07-09T04:45:26;100706.44;;;28.12;51.37
47154;BME280;32907;41.412;2.164;2023-07-09T04:47:54;100700.56;;;28.01;51.61
47154;BME280;32907;41.412;2.164;2023-07-09T04:50:22;100754.16;;;28.25;52.00
47154;BME280;32907;41.412;2.164;2023-07-09T04:52:50;100751.41;;;28.25;52.36
47154;BME280;32907;41.412;2.164;2023-07-09T04:55:19;100733.25;;;28.24;52.12
47154;BME280;32907;41.412;2.164;2023-07-09T04:57:48;100725.78;;;28.24;52.45
47154;BME280;32907;41.412;2.164;2023-07-09T05:00:16;100737.13;;;28.23;52.69
47154;BME280;32907;41.412;2.164;2023-07-09T05:02:45;100706.75;;;27.98;52.60
47154;BME280;32907;41.412;2.164;2023-07-09T05:05:13;100728.50;;;28.12;49.88
47154;BME280;32907;41.412;2.164;2023-07-09T05:07:42;100737.34;;;28.18;51.18
47154;BME280;32907;41.412;2.164;2023-07-09T05:10:11;100746.78;;;28.17;52.09
47154;BME280;32907;41.412;2.164;2023-07-09T05:12:50;100720.41;;;27.95;53.03
47154;BME280;32907;41.412;2.164;2023-07-09T05:15:20;100732.03;;;28.00;52.95
47154;BME280;32907;41.412;2.164;2023-07-09T05:17:48;100764.00;;;28.13;51.40
47154;BME280;32907;41.412;2.164;2023-07-09T05:20:16;100754.56;;;28.02;50.45
47154;BME280;32907;41.412;2.164;2023-07-09T05:22:44;100763.16;;;28.01;50.23
47154;BME280;32907;41.412;2.164;2023-07-09T05:25:13;100763.72;;;28.06;50.04
47154;BME280;32907;41.412;2.164;2023-07-09T05:27:42;100760.53;;;28.04;50.33
47154;BME280;32907;41.412;2.164;2023-07-09T05:30:10;100751.34;;;28.00;50.64
47154;BME280;32907;41.412;2.164;2023-07-09T05:32:38;100785.50;;;28.20;50.41
47154;BME280;32907;41.412;2.164;2023-07-09T05:35:07;100759.59;;;28.00;50.55
47154;BME280;32907;41.412;2.164;2023-07-09T05:37:38;100760.53;;;28.04;51.15
47154;BME280;32907;41.412;2.164;2023-07-09T05:40:07;100792.97;;;28.20;51.91
47154;BME280;32907;41.412;2.164;2023-07-09T05:42:36;100756.44;;;27.90;52.00
47154;BME280;32907;41.412;2.164;2023-07-09T05:45:06;100787.53;;;28.11;52.13
47154;BME280;32907;41.412;2.164;2023-07-09T05:47:36;100786.03;;;28.13;52.42
47154;BME280;32907;41.412;2.164;2023-07-09T05:50:05;100743.47;;;27.90;52.87
47154;BME280;32907;41.412;2.164;2023-07-09T05:52:33;100772.44;;;27.96;53.42
47154;BME280;32907;41.412;2.164;2023-07-09T05:55:02;100775.19;;;27.96;54.46
47154;BME280;32907;41.412;2.164;2023-07-09T05:57:30;100776.28;;;27.83;55.21
47154;BME280;32907;41.412;2.164;2023-07-09T05:59:58;100795.38;;;27.88;55.16
47154;BME280;32907;41.412;2.164;2023-07-09T06:02:26;100777.41;;;27.70;55.24
47154;BME280;32907;41.412;2.164;2023-07-09T06:04:55;100787.19;;;27.79;55.63
47154;BME280;32907;41.412;2.164;2023-07-09T06:07:23;100765.38;;;27.66;55.41
47154;BME280;32907;41.412;2.164;2023-07-09T06:09:51;100810.31;;;27.87;55.60
47154;BME280;32907;41.412;2.164;2023-07-09T06:12:19;100818.13;;;27.85;56.00
47154;BME280;32907;41.412;2.164;2023-07-09T06:14:47;100800.34;;;27.74;55.88
47154;BME280;32907;41.412;2.164;2023-07-09T06:17:15;100808.50;;;27.70;56.39
47154;BME280;32907;41.412;2.164;2023-07-09T06:19:43;100821.75;;;27.77;56.61
47154;BME280;32907;41.412;2.164;2023-07-09T06:22:12;100814.34;;;27.69;57.24
47154;BME280;32907;41.412;2.164;2023-07-09T06:24:40;100827.44;;;27.72;56.97
47154;BME280;32907;41.412;2.164;2023-07-09T06:27:09;100817.44;;;27.67;57.15
47154;BME280;32907;41.412;2.164;2023-07-09T06:29:37;100778.22;;;27.41;57.33
47154;BME280;32907;41.412;2.164;2023-07-09T06:32:05;100787.56;;;27.48;57.12
47154;BME280;32907;41.412;2.164;2023-07-09T06:34:33;100817.13;;;27.69;57.25
47154;BME280;32907;41.412;2.164;2023-07-09T06:37:00;100810.63;;;27.65;57.21
47154;BME280;32907;41.412;2.164;2023-07-09T06:39:29;100787.84;;;27.55;57.20
47154;BME280;32907;41.412;2.164;2023-07-09T06:41:57;100813.72;;;27.63;57.22
47154;BME280;32907;41.412;2.164;2023-07-09T06:44:34;100780.19;;;27.40;56.97
47154;BME280;32907;41.412;2.164;2023-07-09T06:47:02;100775.75;;;27.48;56.56
47154;BME280;32907;41.412;2.164;2023-07-09T06:49:30;100794.44;;;27.63;56.33
47154;BME280;32907;41.412;2.164;2023-07-09T06:51:58;100796.94;;;27.77;56.13
47154;BME280;32907;41.412;2.164;2023-07-09T06:54:26;100805.41;;;27.72;56.10
47154;BME280;32907;41.412;2.164;2023-07-09T06:56:54;100788.91;;;27.63;55.28
47154;BME280;32907;41.412;2.164;2023-07-09T06:59:22;100786.09;;;27.51;54.44
47154;BME280;32907;41.412;2.164;2023-07-09T07:01:49;100825.66;;;27.76;54.41
47154;BME280;32907;41.412;2.164;2023-07-09T07:04:17;100792.75;;;27.50;54.48
47154;BME280;32907;41.412;2.164;2023-07-09T07:06:45;100818.72;;;27.70;53.72
47154;BME280;32907;41.412;2.164;2023-07-09T07:09:16;100800.69;;;27.51;54.65
47154;BME280;32907;41.412;2.164;2023-07-09T07:11:44;100815.31;;;27.64;54.50
47154;BME280;32907;41.412;2.164;2023-07-09T07:14:12;100847.41;;;27.90;55.11
47154;BME280;32907;41.412;2.164;2023-07-09T07:16:40;100796.72;;;27.61;54.86
47154;BME280;32907;41.412;2.164;2023-07-09T07:19:08;100816.00;;;27.82;54.39
47154;BME280;32907;41.412;2.164;2023-07-09T07:21:37;100800.34;;;27.74;54.31
47154;BME280;32907;41.412;2.164;2023-07-09T07:24:05;100816.25;;;27.77;54.95
47154;BME280;32907;41.412;2.164;2023-07-09T07:26:35;100840.81;;;28.03;54.37
47154;BME280;32907;41.412;2.164;2023-07-09T07:29:04;100818.16;;;27.97;54.46
47154;BME280;32907;41.412;2.164;2023-07-09T07:31:31;100833.16;;;28.08;54.42
47154;BME280;32907;41.412;2.164;2023-07-09T07:34:01;100798.19;;;28.00;54.22
47154;BME280;32907;41.412;2.164;2023-07-09T07:36:29;100803.72;;;28.00;53.71
47154;BME280;32907;41.412;2.164;2023-07-09T07:39:00;100804.81;;;27.99;53.44
47154;BME280;32907;41.412;2.164;2023-07-09T07:41:28;100811.28;;;28.03;53.46
47154;BME280;32907;41.412;2.164;2023-07-09T07:43:57;100751.72;;;27.78;53.90
47154;BME280;32907;41.412;2.164;2023-07-09T07:46:25;100789.94;;;28.12;53.70
47154;BME280;32907;41.412;2.164;2023-07-09T07:48:53;100760.25;;;27.97;53.42
47154;BME280;32907;41.412;2.164;2023-07-09T07:51:22;100763.41;;;28.08;53.15
47154;BME280;32907;41.412;2.164;2023-07-09T07:53:50;100743.72;;;27.97;52.35
47154;BME280;32907;41.412;2.164;2023-07-09T07:56:18;100772.84;;;28.19;53.13
47154;BME280;32907;41.412;2.164;2023-07-09T07:58:48;100785.50;;;28.20;52.31
47154;BME280;32907;41.412;2.164;2023-07-09T08:01:15;100729.94;;;27.85;52.17
47154;BME280;32907;41.412;2.164;2023-07-09T08:03:43;100796.88;;;28.19;50.69
47154;BME280;32907;41.412;2.164;2023-07-09T08:06:13;100778.66;;;28.05;50.64
47154;BME280;32907;41.412;2.164;2023-07-09T08:08:41;100785.13;;;28.09;50.63
47154;BME280;32907;41.412;2.164;2023-07-09T08:11:09;100803.72;;;28.12;50.54
47154;BME280;32907;41.412;2.164;2023-07-09T08:13:38;100795.91;;;28.14;49.33
47154;BME280;32907;41.412;2.164;2023-07-09T08:16:07;100798.94;;;28.22;49.52
47154;BME280;32907;41.412;2.164;2023-07-09T08:18:36;100814.75;;;28.33;48.21
47154;BME280;32907;41.412;2.164;2023-07-09T08:21:04;100753.59;;;27.98;46.31
47154;BME280;32907;41.412;2.164;2023-07-09T08:23:32;100813.41;;;28.39;46.76
47154;BME280;32907;41.412;2.164;2023-07-09T08:26:01;100804.22;;;28.48;45.67
47154;BME280;32907;41.412;2.164;2023-07-09T08:28:31;100782.22;;;28.39;47.13
47154;BME280;32907;41.412;2.164;2023-07-09T08:30:59;100780.75;;;28.54;46.93
47154;BME280;32907;41.412;2.164;2023-07-09T08:33:27;100784.81;;;28.56;46.59
47154;BME280;32907;41.412;2.164;2023-07-09T08:35:55;100791.00;;;28.65;47.08
47154;BME280;32907;41.412;2.164;2023-07-09T08:38:23;100774.09;;;28.55;47.21
47154;BME280;32907;41.412;2.164;2023-07-09T08:48:38;100801.47;;;28.72;46.47
47154;BME280;32907;41.412;2.164;2023-07-09T08:53:59;100807.22;;;28.79;47.69
47154;BME280;32907;41.412;2.164;2023-07-09T08:56:31;100807.44;;;28.86;47.19
47154;BME280;32907;41.412;2.164;2023-07-09T08:59:01;100789.75;;;28.75;47.53
47154;BME280;32907;41.412;2.164;2023-07-09T09:01:33;100821.75;;;29.01;49.70
47154;BME280;32907;41.412;2.164;2023-07-09T09:04:20;100824.84;;;29.11;48.61
47154;BME280;32907;41.412;2.164;2023-07-09T09:09:35;100821.63;;;29.21;49.19
47154;BME280;32907;41.412;2.164;2023-07-09T09:12:16;100830.94;;;29.29;46.44
47154;BME280;32907;41.412;2.164;2023-07-09T09:15:02;100825.06;;;29.31;45.61
47154;BME280;32907;41.412;2.164;2023-07-09T09:17:38;100833.13;;;29.36;44.65
47154;BME280;32907;41.412;2.164;2023-07-09T09:20:16;100836.69;;;29.36;43.08
47154;BME280;32907;41.412;2.164;2023-07-09T09:25:55;100836.09;;;29.43;43.95
47154;BME280;32907;41.412;2.164;2023-07-09T09:28:39;100837.59;;;29.40;41.99
47154;BME280;32907;41.412;2.164;2023-07-09T09:31:10;100817.69;;;29.35;43.32
47154;BME280;32907;41.412;2.164;2023-07-09T09:33:46;100825.97;;;29.47;43.91
47154;BME280;32907;41.412;2.164;2023-07-09T09:36:18;100832.28;;;29.47;42.62
47154;BME280;32907;41.412;2.164;2023-07-09T09:38:47;100827.47;;;29.44;42.91
47154;BME280;32907;41.412;2.164;2023-07-09T09:41:19;100820.66;;;29.42;43.48
47154;BME280;32907;41.412;2.164;2023-07-09T09:43:52;100827.13;;;29.46;42.70
47154;BME280;32907;41.412;2.164;2023-07-09T09:46:26;100828.38;;;29.48;42.63
47154;BME280;32907;41.412;2.164;2023-07-09T09:48:58;100834.38;;;29.50;42.23
47154;BME280;32907;41.412;2.164;2023-07-09T09:51:27;100808.50;;;29.31;42.17
47154;BME280;32907;41.412;2.164;2023-07-09T09:53:58;100837.94;;;29.51;42.54
47154;BME280;32907;41.412;2.164;2023-07-09T09:56:35;100833.34;;;29.55;42.56
47154;BME280;32907;41.412;2.164;2023-07-09T09:59:13;100836.56;;;29.57;43.78
47154;BME280;32907;41.412;2.164;2023-07-09T10:01:46;100790.53;;;29.24;43.62
47154;BME280;32907;41.412;2.164;2023-07-09T10:04:18;100845.06;;;29.64;43.48
47154;BME280;32907;41.412;2.164;2023-07-09T10:06:50;100825.41;;;29.53;43.50
47154;BME280;32907;41.412;2.164;2023-07-09T10:12:39;100810.91;;;29.44;40.67
47154;BME280;32907;41.412;2.164;2023-07-09T10:15:38;100838.16;;;29.58;40.59
47154;BME280;32907;41.412;2.164;2023-07-09T10:21:28;100859.09;;;29.71;40.45
47154;BME280;32907;41.412;2.164;2023-07-09T10:26:39;100834.94;;;29.56;41.94
47154;BME280;32907;41.412;2.164;2023-07-09T10:32:03;100878.22;;;29.76;41.64
47154;BME280;32907;41.412;2.164;2023-07-09T10:40:04;100891.78;;;29.81;42.65
47154;BME280;32907;41.412;2.164;2023-07-09T10:42:40;100890.59;;;29.83;41.98
47154;BME280;32907;41.412;2.164;2023-07-09T10:45:28;100900.06;;;29.81;41.42
47154;BME280;32907;41.412;2.164;2023-07-09T10:48:12;100894.09;;;29.79;42.55
47154;BME280;32907;41.412;2.164;2023-07-09T10:50:43;100861.19;;;29.62;43.25
47154;BME280;32907;41.412;2.164;2023-07-09T10:56:10;100855.75;;;29.66;43.80
47154;BME280;32907;41.412;2.164;2023-07-09T10:58:50;100885.88;;;29.83;42.79
47154;BME280;32907;41.412;2.164;2023-07-09T11:01:29;100874.50;;;29.85;42.58
47154;BME280;32907;41.412;2.164;2023-07-09T11:04:05;100876.75;;;29.95;43.83
47154;BME280;32907;41.412;2.164;2023-07-09T11:06:41;100861.28;;;29.78;44.18
47154;BME280;32907;41.412;2.164;2023-07-09T11:09:22;100884.63;;;29.93;44.18
47154;BME280;32907;41.412;2.164;2023-07-09T11:11:55;100845.47;;;29.78;44.57
47154;BME280;32907;41.412;2.164;2023-07-09T11:16:58;100854.19;;;29.93;45.51
47154;BME280;32907;41.412;2.164;2023-07-09T11:19:27;100878.81;;;30.10;45.02
47154;BME280;32907;41.412;2.164;2023-07-09T11:22:53;100867.75;;;30.10;45.51
47154;BME280;32907;41.412;2.164;2023-07-09T11:25:15;100865.78;;;30.11;46.46
47154;BME280;32907;41.412;2.164;2023-07-09T11:28:04;100869.56;;;30.06;46.32
47154;BME280;32907;41.412;2.164;2023-07-09T11:30:32;100832.81;;;29.77;46.66
47154;BME280;32907;41.412;2.164;2023-07-09T11:33:02;100851.59;;;29.84;47.11
47154;BME280;32907;41.412;2.164;2023-07-09T11:36:11;100871.69;;;29.97;47.24
47154;BME280;32907;41.412;2.164;2023-07-09T11:38:45;100875.97;;;29.94;48.55
47154;BME280;32907;41.412;2.164;2023-07-09T11:41:40;100880.69;;;29.94;48.89
47154;BME280;32907;41.412;2.164;2023-07-09T11:46:43;100851.91;;;29.83;47.45
47154;BME280;32907;41.412;2.164;2023-07-09T11:49:15;100873.28;;;29.98;47.15
47154;BME280;32907;41.412;2.164;2023-07-09T11:51:51;100867.16;;;30.04;46.05
47154;BME280;32907;41.412;2.164;2023-07-09T11:54:20;100875.25;;;30.10;46.63
47154;BME280;32907;41.412;2.164;2023-07-09T11:56:56;100855.09;;;29.97;46.63
47154;BME280;32907;41.412;2.164;2023-07-09T11:59:24;100871.97;;;30.07;46.73
47154;BME280;32907;41.412;2.164;2023-07-09T12:01:53;100855.09;;;29.97;46.62
47154;BME280;32907;41.412;2.164;2023-07-09T12:04:28;100865.19;;;30.05;46.71
47154;BME280;32907;41.412;2.164;2023-07-09T12:07:00;100857.72;;;30.05;46.79
47154;BME280;32907;41.412;2.164;2023-07-09T12:09:39;100866.59;;;30.11;47.06
47154;BME280;32907;41.412;2.164;2023-07-09T12:12:18;100865.53;;;30.16;47.17
47154;BME280;32907;41.412;2.164;2023-07-09T12:14:48;100861.41;;;30.10;47.08
47154;BME280;32907;41.412;2.164;2023-07-09T12:17:17;100877.88;;;30.18;46.25
47154;BME280;32907;41.412;2.164;2023-07-09T12:19:44;100879.81;;;30.18;45.68
47154;BME280;32907;41.412;2.164;2023-07-09T12:22:18;100874.97;;;30.15;44.20
47154;BME280;32907;41.412;2.164;2023-07-09T12:24:49;100867.75;;;30.10;44.82
47154;BME280;32907;41.412;2.164;2023-07-09T12:27:26;100885.00;;;30.19;44.69
47154;BME280;32907;41.412;2.164;2023-07-09T12:29:56;100851.28;;;30.01;44.80
47154;BME280;32907;41.412;2.164;2023-07-09T12:32:25;100875.47;;;30.17;44.64
47154;BME280;32907;41.412;2.164;2023-07-09T12:34:56;100857.84;;;30.09;44.42
47154;BME280;32907;41.412;2.164;2023-07-09T12:37:25;100894.31;;;30.27;44.58
47154;BME280;32907;41.412;2.164;2023-07-09T12:39:59;100873.50;;;30.17;44.33
47154;BME280;32907;41.412;2.164;2023-07-09T12:42:31;100894.75;;;30.29;44.64
47154;BME280;32907;41.412;2.164;2023-07-09T12:45:00;100870.06;;;30.08;44.74
47154;BME280;32907;41.412;2.164;2023-07-09T12:47:28;100890.53;;;30.19;45.89
47154;BME280;32907;41.412;2.164;2023-07-09T12:50:01;100857.63;;;30.02;47.30
47154;BME280;32907;41.412;2.164;2023-07-09T12:52:30;100893.38;;;30.23;47.31
47154;BME280;32907;41.412;2.164;2023-07-09T12:55:01;100871.97;;;30.07;47.74
47154;BME280;32907;41.412;2.164;2023-07-09T12:57:30;100883.03;;;30.07;47.94
47154;BME280;32907;41.412;2.164;2023-07-09T13:00:00;100890.09;;;30.17;48.67
47154;BME280;32907;41.412;2.164;2023-07-09T13:02:28;100891.13;;;30.13;48.27
47154;BME280;32907;41.412;2.164;2023-07-09T13:05:06;100867.31;;;29.96;49.70
47154;BME280;32907;41.412;2.164;2023-07-09T13:07:48;100892.41;;;30.03;49.79
47154;BME280;32907;41.412;2.164;2023-07-09T13:10:26;100893.00;;;29.96;50.57
47154;BME280;32907;41.412;2.164;2023-07-09T13:13:05;100865.63;;;29.79;50.60
47154;BME280;32907;41.412;2.164;2023-07-09T13:18:06;100880.47;;;29.87;50.02
47154;BME280;32907;41.412;2.164;2023-07-09T13:20:38;100891.03;;;29.97;50.55
47154;BME280;32907;41.412;2.164;2023-07-09T13:23:17;100895.41;;;29.98;50.14
47154;BME280;32907;41.412;2.164;2023-07-09T13:25:46;100878.97;;;29.89;50.48
47154;BME280;32907;41.412;2.164;2023-07-09T13:30:45;100882.31;;;29.83;50.81
47154;BME280;32907;41.412;2.164;2023-07-09T13:33:13;100867.38;;;29.71;50.44
47154;BME280;32907;41.412;2.164;2023-07-09T13:35:42;100894.75;;;29.89;51.32
47154;BME280;32907;41.412;2.164;2023-07-09T13:38:15;100897.88;;;29.87;51.28
47154;BME280;32907;41.412;2.164;2023-07-09T13:40:50;100889.94;;;29.86;50.72
47154;BME280;32907;41.412;2.164;2023-07-09T13:43:24;100878.88;;;29.86;50.58
47154;BME280;32907;41.412;2.164;2023-07-09T13:45:53;100868.03;;;29.80;50.50
47154;BME280;32907;41.412;2.164;2023-07-09T13:48:25;100877.00;;;29.90;50.87
47154;BME280;32907;41.412;2.164;2023-07-09T13:50:56;100858.59;;;29.81;50.67
47154;BME280;32907;41.412;2.164;2023-07-09T13:53:31;100863.53;;;29.88;51.14
47154;BME280;32907;41.412;2.164;2023-07-09T13:55:59;100870.78;;;29.93;51.23
47154;BME280;32907;41.412;2.164;2023-07-09T13:58:27;100860.69;;;29.85;51.52
47154;BME280;32907;41.412;2.164;2023-07-09T14:01:05;100840.91;;;29.70;51.47